
<gpx xmlns="http://www.topografix.com/GPX/1/1" xmlns:gpxx="http://www.garmin.com/xmlschemas/GpxExtensions/v3" xmlns:xsi="http://www.w3.org/2001/XMLSchema-instance" version="1.1" creator="Adze - https://getadze.com/" xsi:schemaLocation="http://www.topografix.com/GPX/1/1 http://www.topografix.com/GPX/1/1/gpx.xsd http://www.garmin.com/xmlschemas/GpxExtensions/v3 http://www.garmin.com/xmlschemas/GpxExtensionsv3.xsd">
    <metadata>
        <name>Untitled Document</name>
        <link href="http://www.garmin.com"></link>
        <time>2018-03-08T08:07:08.903Z</time>
    </metadata>
    <wpt lon="100.849288" lat="15.007298">
        <time>2010-11-22T02:35:19Z</time>
        <name>Narai Hill</name>
        <sym>Lodging</sym>
        <extensions>
            <gpxx:WaypointExtension xmlns:gpxx="http://www.garmin.com/xmlschemas/GpxExtensions/v3">
                <gpxx:DisplayMode>SymbolOnly</gpxx:DisplayMode>
            </gpxx:WaypointExtension>
        </extensions>
    </wpt>
    <trk>
        <name>November 2010 - Sunday</name>
        <extensions>
            <gpxx:TrackExtension xmlns:gpxx="http://www.garmin.com/xmlschemas/GpxExtensions/v3">
                <gpxx:DisplayColor>Green</gpxx:DisplayColor>
            </gpxx:TrackExtension>
        </extensions>
        <trkseg>
            <trkpt lon="100.850994" lat="15.005036">
                <ele>150.399994</ele>
                <time>2010-11-21T03:06:25Z</time>
            </trkpt>
            <trkpt lon="100.851474" lat="15.004459">
                <ele>151.199997</ele>
                <time>2010-11-21T03:06:49Z</time>
            </trkpt>
            <trkpt lon="100.851787" lat="15.004240">
                <ele>149.199997</ele>
                <time>2010-11-21T03:06:54Z</time>
            </trkpt>
            <trkpt lon="100.852947" lat="15.004638">
                <ele>136.600006</ele>
                <time>2010-11-21T03:07:08Z</time>
            </trkpt>
            <trkpt lon="100.853395" lat="15.005210">
                <ele>130.800003</ele>
                <time>2010-11-21T03:07:16Z</time>
            </trkpt>
            <trkpt lon="100.854522" lat="15.006278">
                <ele>122.199997</ele>
                <time>2010-11-21T03:07:29Z</time>
            </trkpt>
            <trkpt lon="100.855140" lat="15.007148">
                <ele>120.199997</ele>
                <time>2010-11-21T03:07:43Z</time>
            </trkpt>
            <trkpt lon="100.855907" lat="15.006579">
                <ele>123.800003</ele>
                <time>2010-11-21T03:07:58Z</time>
            </trkpt>
            <trkpt lon="100.857314" lat="15.005558">
                <ele>123.000000</ele>
                <time>2010-11-21T03:08:23Z</time>
            </trkpt>
            <trkpt lon="100.858957" lat="15.004461">
                <ele>116.599998</ele>
                <time>2010-11-21T03:08:43Z</time>
            </trkpt>
            <trkpt lon="100.861114" lat="15.003278">
                <ele>120.400002</ele>
                <time>2010-11-21T03:09:14Z</time>
            </trkpt>
            <trkpt lon="100.861695" lat="15.003082">
                <ele>119.199997</ele>
                <time>2010-11-21T03:09:22Z</time>
            </trkpt>
            <trkpt lon="100.862711" lat="15.003127">
                <ele>113.400002</ele>
                <time>2010-11-21T03:09:32Z</time>
            </trkpt>
            <trkpt lon="100.864139" lat="15.002939">
                <ele>108.800003</ele>
                <time>2010-11-21T03:09:48Z</time>
            </trkpt>
            <trkpt lon="100.864590" lat="15.002734">
                <ele>109.400002</ele>
                <time>2010-11-21T03:09:56Z</time>
            </trkpt>
            <trkpt lon="100.864451" lat="15.002723">
                <ele>109.599998</ele>
                <time>2010-11-21T03:14:41Z</time>
            </trkpt>
            <trkpt lon="100.864749" lat="15.001791">
                <ele>114.800003</ele>
                <time>2010-11-21T03:15:03Z</time>
            </trkpt>
            <trkpt lon="100.866398" lat="14.995015">
                <ele>143.199997</ele>
                <time>2010-11-21T03:17:10Z</time>
            </trkpt>
            <trkpt lon="100.866304" lat="14.994059">
                <ele>145.000000</ele>
                <time>2010-11-21T03:17:30Z</time>
            </trkpt>
            <trkpt lon="100.866089" lat="14.993283">
                <ele>142.000000</ele>
                <time>2010-11-21T03:18:27Z</time>
            </trkpt>
            <trkpt lon="100.866717" lat="14.992901">
                <ele>141.199997</ele>
                <time>2010-11-21T03:18:42Z</time>
            </trkpt>
            <trkpt lon="100.867086" lat="14.992033">
                <ele>140.800003</ele>
                <time>2010-11-21T03:18:57Z</time>
            </trkpt>
            <trkpt lon="100.867169" lat="14.991670">
                <ele>140.399994</ele>
                <time>2010-11-21T03:19:03Z</time>
            </trkpt>
            <trkpt lon="100.867135" lat="14.991083">
                <ele>138.000000</ele>
                <time>2010-11-21T03:19:12Z</time>
            </trkpt>
            <trkpt lon="100.867333" lat="14.990560">
                <ele>136.600006</ele>
                <time>2010-11-21T03:19:19Z</time>
            </trkpt>
            <trkpt lon="100.867442" lat="14.990346">
                <ele>135.199997</ele>
                <time>2010-11-21T03:19:22Z</time>
            </trkpt>
            <trkpt lon="100.867704" lat="14.990073">
                <ele>134.199997</ele>
                <time>2010-11-21T03:19:27Z</time>
            </trkpt>
            <trkpt lon="100.868117" lat="14.989956">
                <ele>135.199997</ele>
                <time>2010-11-21T03:19:33Z</time>
            </trkpt>
            <trkpt lon="100.868658" lat="14.990034">
                <ele>137.600006</ele>
                <time>2010-11-21T03:19:42Z</time>
            </trkpt>
            <trkpt lon="100.869363" lat="14.990351">
                <ele>144.199997</ele>
                <time>2010-11-21T03:20:00Z</time>
            </trkpt>
            <trkpt lon="100.870440" lat="14.990075">
                <ele>145.800003</ele>
                <time>2010-11-21T03:20:30Z</time>
            </trkpt>
            <trkpt lon="100.871651" lat="14.990161">
                <ele>156.399994</ele>
                <time>2010-11-21T03:21:22Z</time>
            </trkpt>
            <trkpt lon="100.871954" lat="14.989969">
                <ele>157.399994</ele>
                <time>2010-11-21T03:21:37Z</time>
            </trkpt>
            <trkpt lon="100.872182" lat="14.990255">
                <ele>158.600006</ele>
                <time>2010-11-21T03:22:22Z</time>
            </trkpt>
            <trkpt lon="100.872748" lat="14.991289">
                <ele>160.199997</ele>
                <time>2010-11-21T03:23:24Z</time>
            </trkpt>
            <trkpt lon="100.873065" lat="14.991472">
                <ele>157.800003</ele>
                <time>2010-11-21T03:25:00Z</time>
            </trkpt>
            <trkpt lon="100.872841" lat="14.991391">
                <ele>159.800003</ele>
                <time>2010-11-21T03:26:04Z</time>
            </trkpt>
            <trkpt lon="100.872718" lat="14.991159">
                <ele>160.199997</ele>
                <time>2010-11-21T03:26:42Z</time>
            </trkpt>
            <trkpt lon="100.872234" lat="14.990267">
                <ele>158.800003</ele>
                <time>2010-11-21T03:27:46Z</time>
            </trkpt>
            <trkpt lon="100.871973" lat="14.989957">
                <ele>157.600006</ele>
                <time>2010-11-21T03:28:38Z</time>
            </trkpt>
            <trkpt lon="100.872547" lat="14.989384">
                <ele>163.000000</ele>
                <time>2010-11-21T03:29:05Z</time>
            </trkpt>
            <trkpt lon="100.873206" lat="14.988707">
                <ele>164.800003</ele>
                <time>2010-11-21T03:29:32Z</time>
            </trkpt>
            <trkpt lon="100.874106" lat="14.988712">
                <ele>160.800003</ele>
                <time>2010-11-21T03:29:47Z</time>
            </trkpt>
            <trkpt lon="100.874874" lat="14.989124">
                <ele>151.000000</ele>
                <time>2010-11-21T03:29:59Z</time>
            </trkpt>
            <trkpt lon="100.877430" lat="14.989821">
                <ele>137.399994</ele>
                <time>2010-11-21T03:30:37Z</time>
            </trkpt>
            <trkpt lon="100.877729" lat="14.989942">
                <ele>135.600006</ele>
                <time>2010-11-21T03:30:41Z</time>
            </trkpt>
            <trkpt lon="100.878681" lat="14.989763">
                <ele>134.399994</ele>
                <time>2010-11-21T03:31:00Z</time>
            </trkpt>
            <trkpt lon="100.879162" lat="14.989875">
                <ele>132.800003</ele>
                <time>2010-11-21T03:31:53Z</time>
            </trkpt>
            <trkpt lon="100.879452" lat="14.989838">
                <ele>131.800003</ele>
                <time>2010-11-21T03:31:58Z</time>
            </trkpt>
            <trkpt lon="100.881691" lat="14.989425">
                <ele>126.599998</ele>
                <time>2010-11-21T03:32:45Z</time>
            </trkpt>
            <trkpt lon="100.882002" lat="14.989455">
                <ele>124.000000</ele>
                <time>2010-11-21T03:32:51Z</time>
            </trkpt>
            <trkpt lon="100.882838" lat="14.990461">
                <ele>116.199997</ele>
                <time>2010-11-21T03:33:13Z</time>
            </trkpt>
            <trkpt lon="100.883162" lat="14.991195">
                <ele>110.000000</ele>
                <time>2010-11-21T03:33:28Z</time>
            </trkpt>
            <trkpt lon="100.883356" lat="14.991228">
                <ele>109.000000</ele>
                <time>2010-11-21T03:33:33Z</time>
            </trkpt>
            <trkpt lon="100.883352" lat="14.990477">
                <ele>114.400002</ele>
                <time>2010-11-21T03:34:21Z</time>
            </trkpt>
            <trkpt lon="100.883540" lat="14.990377">
                <ele>114.199997</ele>
                <time>2010-11-21T03:34:32Z</time>
            </trkpt>
            <trkpt lon="100.883605" lat="14.990065">
                <ele>115.800003</ele>
                <time>2010-11-21T03:34:47Z</time>
            </trkpt>
            <trkpt lon="100.883661" lat="14.989961">
                <ele>116.000000</ele>
                <time>2010-11-21T03:34:51Z</time>
            </trkpt>
            <trkpt lon="100.885184" lat="14.989766">
                <ele>108.800003</ele>
                <time>2010-11-21T03:35:38Z</time>
            </trkpt>
            <trkpt lon="100.885980" lat="14.989826">
                <ele>106.000000</ele>
                <time>2010-11-21T03:36:29Z</time>
            </trkpt>
            <trkpt lon="100.886758" lat="14.989366">
                <ele>108.599998</ele>
                <time>2010-11-21T03:37:03Z</time>
            </trkpt>
            <trkpt lon="100.887128" lat="14.989424">
                <ele>106.599998</ele>
                <time>2010-11-21T03:37:17Z</time>
            </trkpt>
            <trkpt lon="100.887036" lat="14.987639">
                <ele>117.800003</ele>
                <time>2010-11-21T03:39:58Z</time>
            </trkpt>
            <trkpt lon="100.887142" lat="14.986855">
                <ele>121.800003</ele>
                <time>2010-11-21T03:40:41Z</time>
            </trkpt>
            <trkpt lon="100.889499" lat="14.986576">
                <ele>114.000000</ele>
                <time>2010-11-21T03:41:33Z</time>
            </trkpt>
            <trkpt lon="100.889680" lat="14.986606">
                <ele>113.199997</ele>
                <time>2010-11-21T03:41:41Z</time>
            </trkpt>
            <trkpt lon="100.891641" lat="14.985682">
                <ele>113.400002</ele>
                <time>2010-11-21T03:42:58Z</time>
            </trkpt>
            <trkpt lon="100.892506" lat="14.986038">
                <ele>109.400002</ele>
                <time>2010-11-21T03:43:31Z</time>
            </trkpt>
            <trkpt lon="100.892600" lat="14.986421">
                <ele>107.800003</ele>
                <time>2010-11-21T03:43:41Z</time>
            </trkpt>
            <trkpt lon="100.893174" lat="14.986972">
                <ele>103.599998</ele>
                <time>2010-11-21T03:43:58Z</time>
            </trkpt>
            <trkpt lon="100.893436" lat="14.987409">
                <ele>102.599998</ele>
                <time>2010-11-21T03:44:10Z</time>
            </trkpt>
            <trkpt lon="100.894219" lat="14.987273">
                <ele>99.800003</ele>
                <time>2010-11-21T03:45:07Z</time>
            </trkpt>
            <trkpt lon="100.894503" lat="14.986953">
                <ele>100.400002</ele>
                <time>2010-11-21T03:45:25Z</time>
            </trkpt>
            <trkpt lon="100.894971" lat="14.987295">
                <ele>99.199997</ele>
                <time>2010-11-21T03:45:49Z</time>
            </trkpt>
            <trkpt lon="100.895565" lat="14.987448">
                <ele>98.000000</ele>
                <time>2010-11-21T03:46:24Z</time>
            </trkpt>
            <trkpt lon="100.896308" lat="14.987336">
                <ele>98.400002</ele>
                <time>2010-11-21T03:48:24Z</time>
            </trkpt>
            <trkpt lon="100.896800" lat="14.987047">
                <ele>99.400002</ele>
                <time>2010-11-21T03:48:55Z</time>
            </trkpt>
            <trkpt lon="100.897148" lat="14.986994">
                <ele>99.400002</ele>
                <time>2010-11-21T03:49:07Z</time>
            </trkpt>
            <trkpt lon="100.898100" lat="14.987271">
                <ele>99.599998</ele>
                <time>2010-11-21T03:49:52Z</time>
            </trkpt>
            <trkpt lon="100.899168" lat="14.986652">
                <ele>108.000000</ele>
                <time>2010-11-21T03:50:54Z</time>
            </trkpt>
            <trkpt lon="100.900733" lat="14.986326">
                <ele>115.199997</ele>
                <time>2010-11-21T03:51:59Z</time>
            </trkpt>
            <trkpt lon="100.900749" lat="14.986339">
                <ele>115.199997</ele>
                <time>2010-11-21T03:52:05Z</time>
            </trkpt>
            <trkpt lon="100.901009" lat="14.988121">
                <ele>107.000000</ele>
                <time>2010-11-21T03:54:20Z</time>
            </trkpt>
            <trkpt lon="100.902513" lat="14.988345">
                <ele>106.800003</ele>
                <time>2010-11-21T03:55:24Z</time>
            </trkpt>
            <trkpt lon="100.902894" lat="14.988474">
                <ele>104.199997</ele>
                <time>2010-11-21T03:55:36Z</time>
            </trkpt>
            <trkpt lon="100.903208" lat="14.989103">
                <ele>101.000000</ele>
                <time>2010-11-21T03:55:53Z</time>
            </trkpt>
            <trkpt lon="100.904638" lat="14.989691">
                <ele>95.400002</ele>
                <time>2010-11-21T03:56:45Z</time>
            </trkpt>
            <trkpt lon="100.904794" lat="14.990456">
                <ele>92.599998</ele>
                <time>2010-11-21T03:57:06Z</time>
            </trkpt>
            <trkpt lon="100.905089" lat="14.990921">
                <ele>90.599998</ele>
                <time>2010-11-21T03:57:20Z</time>
            </trkpt>
            <trkpt lon="100.906258" lat="14.990761">
                <ele>91.199997</ele>
                <time>2010-11-21T03:57:54Z</time>
            </trkpt>
            <trkpt lon="100.907301" lat="14.990833">
                <ele>91.000000</ele>
                <time>2010-11-21T03:58:38Z</time>
            </trkpt>
            <trkpt lon="100.907990" lat="14.990830">
                <ele>89.800003</ele>
                <time>2010-11-21T03:59:51Z</time>
            </trkpt>
            <trkpt lon="100.908280" lat="14.990922">
                <ele>89.000000</ele>
                <time>2010-11-21T04:00:04Z</time>
            </trkpt>
            <trkpt lon="100.908357" lat="14.991110">
                <ele>88.599998</ele>
                <time>2010-11-21T04:00:10Z</time>
            </trkpt>
            <trkpt lon="100.909381" lat="14.991267">
                <ele>90.800003</ele>
                <time>2010-11-21T04:00:45Z</time>
            </trkpt>
            <trkpt lon="100.909707" lat="14.991158">
                <ele>91.800003</ele>
                <time>2010-11-21T04:01:01Z</time>
            </trkpt>
            <trkpt lon="100.909723" lat="14.991162">
                <ele>91.800003</ele>
                <time>2010-11-21T04:01:02Z</time>
            </trkpt>
            <trkpt lon="100.909867" lat="14.992119">
                <ele>90.199997</ele>
                <time>2010-11-21T04:01:28Z</time>
            </trkpt>
            <trkpt lon="100.909690" lat="14.993689">
                <ele>86.000000</ele>
                <time>2010-11-21T04:01:52Z</time>
            </trkpt>
            <trkpt lon="100.909831" lat="14.994910">
                <ele>85.000000</ele>
                <time>2010-11-21T04:02:09Z</time>
            </trkpt>
            <trkpt lon="100.909667" lat="14.995670">
                <ele>83.199997</ele>
                <time>2010-11-21T04:02:19Z</time>
            </trkpt>
            <trkpt lon="100.908969" lat="14.996695">
                <ele>82.199997</ele>
                <time>2010-11-21T04:02:35Z</time>
            </trkpt>
            <trkpt lon="100.908521" lat="14.997904">
                <ele>82.000000</ele>
                <time>2010-11-21T04:02:54Z</time>
            </trkpt>
            <trkpt lon="100.908853" lat="14.998704">
                <ele>81.800003</ele>
                <time>2010-11-21T04:03:07Z</time>
            </trkpt>
            <trkpt lon="100.908806" lat="14.998954">
                <ele>81.800003</ele>
                <time>2010-11-21T04:03:12Z</time>
            </trkpt>
            <trkpt lon="100.907828" lat="14.999488">
                <ele>83.800003</ele>
                <time>2010-11-21T04:03:31Z</time>
            </trkpt>
            <trkpt lon="100.906690" lat="14.999459">
                <ele>85.800003</ele>
                <time>2010-11-21T04:03:53Z</time>
            </trkpt>
            <trkpt lon="100.906086" lat="14.999441">
                <ele>85.400002</ele>
                <time>2010-11-21T04:04:04Z</time>
            </trkpt>
            <trkpt lon="100.905826" lat="14.999846">
                <ele>85.800003</ele>
                <time>2010-11-21T04:04:15Z</time>
            </trkpt>
            <trkpt lon="100.902537" lat="14.999663">
                <ele>86.400002</ele>
                <time>2010-11-21T04:05:15Z</time>
            </trkpt>
            <trkpt lon="100.902291" lat="14.999353">
                <ele>86.199997</ele>
                <time>2010-11-21T04:05:23Z</time>
            </trkpt>
            <trkpt lon="100.902145" lat="14.999331">
                <ele>86.000000</ele>
                <time>2010-11-21T04:05:26Z</time>
            </trkpt>
            <trkpt lon="100.899628" lat="14.999543">
                <ele>87.800003</ele>
                <time>2010-11-21T04:06:18Z</time>
            </trkpt>
            <trkpt lon="100.895989" lat="15.000194">
                <ele>92.400002</ele>
                <time>2010-11-21T04:07:30Z</time>
            </trkpt>
            <trkpt lon="100.895717" lat="15.000354">
                <ele>93.000000</ele>
                <time>2010-11-21T04:07:36Z</time>
            </trkpt>
            <trkpt lon="100.894990" lat="15.001298">
                <ele>94.000000</ele>
                <time>2010-11-21T04:08:00Z</time>
            </trkpt>
            <trkpt lon="100.891167" lat="15.003415">
                <ele>103.800003</ele>
                <time>2010-11-21T04:09:28Z</time>
            </trkpt>
            <trkpt lon="100.890962" lat="15.003700">
                <ele>105.800003</ele>
                <time>2010-11-21T04:09:36Z</time>
            </trkpt>
            <trkpt lon="100.889887" lat="15.003790">
                <ele>108.800003</ele>
                <time>2010-11-21T04:09:59Z</time>
            </trkpt>
            <trkpt lon="100.889853" lat="15.003264">
                <ele>106.800003</ele>
                <time>2010-11-21T04:10:11Z</time>
            </trkpt>
            <trkpt lon="100.889643" lat="15.003127">
                <ele>107.800003</ele>
                <time>2010-11-21T04:10:17Z</time>
            </trkpt>
            <trkpt lon="100.888090" lat="15.003204">
                <ele>114.400002</ele>
                <time>2010-11-21T04:11:21Z</time>
            </trkpt>
            <trkpt lon="100.888149" lat="15.003487">
                <ele>114.800003</ele>
                <time>2010-11-21T04:11:36Z</time>
            </trkpt>
            <trkpt lon="100.888112" lat="15.003268">
                <ele>114.400002</ele>
                <time>2010-11-21T04:14:22Z</time>
            </trkpt>
            <trkpt lon="100.887990" lat="15.003325">
                <ele>115.199997</ele>
                <time>2010-11-21T04:15:46Z</time>
            </trkpt>
            <trkpt lon="100.888007" lat="15.003378">
                <ele>115.199997</ele>
                <time>2010-11-21T04:25:55Z</time>
            </trkpt>
            <trkpt lon="100.888028" lat="15.003216">
                <ele>114.599998</ele>
                <time>2010-11-21T04:29:39Z</time>
            </trkpt>
            <trkpt lon="100.888151" lat="15.003639">
                <ele>115.000000</ele>
                <time>2010-11-21T04:33:16Z</time>
            </trkpt>
            <trkpt lon="100.888009" lat="15.004136">
                <ele>116.800003</ele>
                <time>2010-11-21T04:33:32Z</time>
            </trkpt>
            <trkpt lon="100.887508" lat="15.004372">
                <ele>119.800003</ele>
                <time>2010-11-21T04:33:47Z</time>
            </trkpt>
            <trkpt lon="100.887468" lat="15.004378">
                <ele>119.800003</ele>
                <time>2010-11-21T04:33:51Z</time>
            </trkpt>
            <trkpt lon="100.887710" lat="15.004489">
                <ele>118.599998</ele>
                <time>2010-11-21T04:34:02Z</time>
            </trkpt>
            <trkpt lon="100.887767" lat="15.005480">
                <ele>117.199997</ele>
                <time>2010-11-21T04:34:21Z</time>
            </trkpt>
            <trkpt lon="100.887784" lat="15.005633">
                <ele>116.800003</ele>
                <time>2010-11-21T04:34:24Z</time>
            </trkpt>
            <trkpt lon="100.888528" lat="15.005645">
                <ele>114.800003</ele>
                <time>2010-11-21T04:34:37Z</time>
            </trkpt>
            <trkpt lon="100.888942" lat="15.006440">
                <ele>115.000000</ele>
                <time>2010-11-21T04:35:00Z</time>
            </trkpt>
            <trkpt lon="100.889020" lat="15.007181">
                <ele>116.199997</ele>
                <time>2010-11-21T04:35:27Z</time>
            </trkpt>
            <trkpt lon="100.889260" lat="15.007840">
                <ele>118.400002</ele>
                <time>2010-11-21T04:35:57Z</time>
            </trkpt>
            <trkpt lon="100.889548" lat="15.008175">
                <ele>120.000000</ele>
                <time>2010-11-21T04:36:23Z</time>
            </trkpt>
            <trkpt lon="100.889310" lat="15.008266">
                <ele>119.800003</ele>
                <time>2010-11-21T04:36:59Z</time>
            </trkpt>
            <trkpt lon="100.889594" lat="15.009126">
                <ele>123.800003</ele>
                <time>2010-11-21T04:37:55Z</time>
            </trkpt>
            <trkpt lon="100.889662" lat="15.009477">
                <ele>125.199997</ele>
                <time>2010-11-21T04:38:11Z</time>
            </trkpt>
            <trkpt lon="100.889718" lat="15.010592">
                <ele>129.399994</ele>
                <time>2010-11-21T04:39:02Z</time>
            </trkpt>
            <trkpt lon="100.889701" lat="15.010609">
                <ele>129.399994</ele>
                <time>2010-11-21T04:39:03Z</time>
            </trkpt>
            <trkpt lon="100.884727" lat="15.010976">
                <ele>124.599998</ele>
                <time>2010-11-21T04:40:54Z</time>
            </trkpt>
            <trkpt lon="100.881569" lat="15.012197">
                <ele>115.800003</ele>
                <time>2010-11-21T04:41:56Z</time>
            </trkpt>
            <trkpt lon="100.881377" lat="15.012761">
                <ele>115.599998</ele>
                <time>2010-11-21T04:42:07Z</time>
            </trkpt>
            <trkpt lon="100.879198" lat="15.012998">
                <ele>112.000000</ele>
                <time>2010-11-21T04:42:37Z</time>
            </trkpt>
            <trkpt lon="100.878356" lat="15.013253">
                <ele>110.800003</ele>
                <time>2010-11-21T04:42:47Z</time>
            </trkpt>
            <trkpt lon="100.875526" lat="15.013116">
                <ele>107.400002</ele>
                <time>2010-11-21T04:43:22Z</time>
            </trkpt>
            <trkpt lon="100.871632" lat="15.013466">
                <ele>102.000000</ele>
                <time>2010-11-21T04:44:13Z</time>
            </trkpt>
            <trkpt lon="100.870336" lat="15.013543">
                <ele>98.800003</ele>
                <time>2010-11-21T04:44:28Z</time>
            </trkpt>
            <trkpt lon="100.870170" lat="15.014265">
                <ele>100.199997</ele>
                <time>2010-11-21T04:44:41Z</time>
            </trkpt>
            <trkpt lon="100.870230" lat="15.014927">
                <ele>100.800003</ele>
                <time>2010-11-21T04:44:55Z</time>
            </trkpt>
            <trkpt lon="100.870067" lat="15.015057">
                <ele>101.000000</ele>
                <time>2010-11-21T04:45:00Z</time>
            </trkpt>
            <trkpt lon="100.865506" lat="15.015017">
                <ele>96.000000</ele>
                <time>2010-11-21T04:46:00Z</time>
            </trkpt>
            <trkpt lon="100.861667" lat="15.016393">
                <ele>89.000000</ele>
                <time>2010-11-21T04:46:46Z</time>
            </trkpt>
            <trkpt lon="100.860951" lat="15.016452">
                <ele>89.800003</ele>
                <time>2010-11-21T04:46:55Z</time>
            </trkpt>
            <trkpt lon="100.860051" lat="15.016306">
                <ele>93.800003</ele>
                <time>2010-11-21T04:47:07Z</time>
            </trkpt>
            <trkpt lon="100.859491" lat="15.016279">
                <ele>94.800003</ele>
                <time>2010-11-21T04:47:16Z</time>
            </trkpt>
            <trkpt lon="100.859077" lat="15.016597">
                <ele>95.599998</ele>
                <time>2010-11-21T04:47:26Z</time>
            </trkpt>
            <trkpt lon="100.857146" lat="15.017338">
                <ele>92.599998</ele>
                <time>2010-11-21T04:47:54Z</time>
            </trkpt>
            <trkpt lon="100.851267" lat="15.019302">
                <ele>98.599998</ele>
                <time>2010-11-21T04:49:14Z</time>
            </trkpt>
            <trkpt lon="100.850626" lat="15.019219">
                <ele>102.800003</ele>
                <time>2010-11-21T04:49:24Z</time>
            </trkpt>
            <trkpt lon="100.849768" lat="15.019081">
                <ele>102.599998</ele>
                <time>2010-11-21T04:49:38Z</time>
            </trkpt>
            <trkpt lon="100.849367" lat="15.018993">
                <ele>102.199997</ele>
                <time>2010-11-21T04:49:45Z</time>
            </trkpt>
            <trkpt lon="100.849332" lat="15.018185">
                <ele>105.400002</ele>
                <time>2010-11-21T04:49:59Z</time>
            </trkpt>
            <trkpt lon="100.849365" lat="15.016579">
                <ele>106.000000</ele>
                <time>2010-11-21T04:50:26Z</time>
            </trkpt>
            <trkpt lon="100.848984" lat="15.016302">
                <ele>107.400002</ele>
                <time>2010-11-21T04:50:34Z</time>
            </trkpt>
            <trkpt lon="100.848669" lat="15.016229">
                <ele>107.800003</ele>
                <time>2010-11-21T04:50:39Z</time>
            </trkpt>
            <trkpt lon="100.848285" lat="15.016324">
                <ele>107.400002</ele>
                <time>2010-11-21T04:50:45Z</time>
            </trkpt>
            <trkpt lon="100.848034" lat="15.016620">
                <ele>106.000000</ele>
                <time>2010-11-21T04:50:51Z</time>
            </trkpt>
            <trkpt lon="100.847492" lat="15.018415">
                <ele>107.199997</ele>
                <time>2010-11-21T04:51:19Z</time>
            </trkpt>
            <trkpt lon="100.847275" lat="15.018770">
                <ele>103.800003</ele>
                <time>2010-11-21T04:51:25Z</time>
            </trkpt>
            <trkpt lon="100.846840" lat="15.019023">
                <ele>101.599998</ele>
                <time>2010-11-21T04:51:32Z</time>
            </trkpt>
            <trkpt lon="100.845668" lat="15.019197">
                <ele>104.400002</ele>
                <time>2010-11-21T04:51:48Z</time>
            </trkpt>
            <trkpt lon="100.845595" lat="15.019204">
                <ele>104.199997</ele>
                <time>2010-11-21T04:51:49Z</time>
            </trkpt>
            <trkpt lon="100.844668" lat="15.019067">
                <ele>104.000000</ele>
                <time>2010-11-21T04:52:02Z</time>
            </trkpt>
            <trkpt lon="100.842906" lat="15.017766">
                <ele>114.400002</ele>
                <time>2010-11-21T04:52:33Z</time>
            </trkpt>
            <trkpt lon="100.842728" lat="15.017053">
                <ele>118.199997</ele>
                <time>2010-11-21T04:52:58Z</time>
            </trkpt>
            <trkpt lon="100.842504" lat="15.016766">
                <ele>120.400002</ele>
                <time>2010-11-21T04:53:13Z</time>
            </trkpt>
            <trkpt lon="100.842425" lat="15.016626">
                <ele>120.800003</ele>
                <time>2010-11-21T04:53:18Z</time>
            </trkpt>
            <trkpt lon="100.842270" lat="15.016484">
                <ele>120.800003</ele>
                <time>2010-11-21T04:53:25Z</time>
            </trkpt>
            <trkpt lon="100.842045" lat="15.016659">
                <ele>121.000000</ele>
                <time>2010-11-21T04:53:36Z</time>
            </trkpt>
            <trkpt lon="100.841961" lat="15.016734">
                <ele>120.599998</ele>
                <time>2010-11-21T04:53:39Z</time>
            </trkpt>
            <trkpt lon="100.841639" lat="15.017560">
                <ele>119.000000</ele>
                <time>2010-11-21T04:54:11Z</time>
            </trkpt>
            <trkpt lon="100.841190" lat="15.017372">
                <ele>120.000000</ele>
                <time>2010-11-21T04:54:32Z</time>
            </trkpt>
            <trkpt lon="100.840769" lat="15.017807">
                <ele>121.000000</ele>
                <time>2010-11-21T04:55:07Z</time>
            </trkpt>
            <trkpt lon="100.840044" lat="15.016874">
                <ele>128.000000</ele>
                <time>2010-11-21T04:55:39Z</time>
            </trkpt>
            <trkpt lon="100.840008" lat="15.016778">
                <ele>128.399994</ele>
                <time>2010-11-21T04:55:42Z</time>
            </trkpt>
            <trkpt lon="100.839833" lat="15.015946">
                <ele>134.800003</ele>
                <time>2010-11-21T04:56:07Z</time>
            </trkpt>
            <trkpt lon="100.839984" lat="15.015340">
                <ele>139.199997</ele>
                <time>2010-11-21T04:56:25Z</time>
            </trkpt>
            <trkpt lon="100.839995" lat="15.015306">
                <ele>139.399994</ele>
                <time>2010-11-21T04:56:26Z</time>
            </trkpt>
            <trkpt lon="100.840399" lat="15.014566">
                <ele>142.199997</ele>
                <time>2010-11-21T04:56:49Z</time>
            </trkpt>
            <trkpt lon="100.842197" lat="15.013219">
                <ele>136.399994</ele>
                <time>2010-11-21T04:57:20Z</time>
            </trkpt>
            <trkpt lon="100.843502" lat="15.012382">
                <ele>131.000000</ele>
                <time>2010-11-21T04:57:37Z</time>
            </trkpt>
            <trkpt lon="100.844910" lat="15.011968">
                <ele>127.000000</ele>
                <time>2010-11-21T04:57:53Z</time>
            </trkpt>
            <trkpt lon="100.845409" lat="15.011069">
                <ele>130.399994</ele>
                <time>2010-11-21T04:58:09Z</time>
            </trkpt>
            <trkpt lon="100.846170" lat="15.010210">
                <ele>130.800003</ele>
                <time>2010-11-21T04:58:30Z</time>
            </trkpt>
            <trkpt lon="100.847275" lat="15.009028">
                <ele>127.000000</ele>
                <time>2010-11-21T04:58:53Z</time>
            </trkpt>
            <trkpt lon="100.848058" lat="15.008745">
                <ele>130.000000</ele>
                <time>2010-11-21T04:59:20Z</time>
            </trkpt>
            <trkpt lon="100.848547" lat="15.007855">
                <ele>136.399994</ele>
                <time>2010-11-21T05:00:12Z</time>
            </trkpt>
            <trkpt lon="100.848433" lat="15.007472">
                <ele>137.000000</ele>
                <time>2010-11-21T05:00:27Z</time>
            </trkpt>
            <trkpt lon="100.848533" lat="15.007381">
                <ele>138.600006</ele>
                <time>2010-11-21T05:00:38Z</time>
            </trkpt>
            <trkpt lon="100.848520" lat="15.007370">
                <ele>138.600006</ele>
                <time>2010-11-21T05:00:47Z</time>
            </trkpt>
        </trkseg>
    </trk>
</gpx>